createdAt,value
2023-02-01T00:00:54.478Z,0.00
2023-02-01T00:01:54.534Z,0.00
2023-02-01T00:02:54.549Z,0.00
2023-02-01T00:03:54.611Z,0.00
2023-02-01T00:04:54.579Z,0.00
2023-02-01T00:05:54.596Z,0.00
2023-02-01T00:06:54.619Z,0.00
2023-02-01T00:07:54.640Z,0.00
2023-02-01T00:08:54.679Z,0.00
2023-02-01T00:09:54.688Z,0.00
2023-02-01T00:10:54.715Z,0.00
2023-02-01T00:11:54.735Z,0.00
2023-02-01T00:12:54.761Z,0.00
2023-02-01T00:13:54.784Z,0.00
2023-02-01T00:14:54.810Z,0.00
2023-02-01T00:15:54.872Z,0.00
2023-02-01T00:16:54.856Z,0.00
2023-02-01T00:17:54.896Z,0.00
2023-02-01T00:18:54.905Z,0.00
2023-02-01T00:19:54.925Z,0.00
2023-02-01T00:20:54.951Z,0.00
2023-02-01T00:21:54.979Z,0.00
2023-02-01T00:22:55.007Z,0.00
2023-02-01T00:23:55.023Z,0.00
2023-02-01T00:24:55.047Z,0.00
2023-02-01T00:25:55.066Z,0.00
2023-02-01T00:26:55.190Z,0.00
2023-02-01T00:27:55.119Z,0.00
2023-02-01T00:28:55.141Z,0.00
2023-02-01T00:29:55.163Z,0.00
2023-02-01T00:30:55.286Z,0.00
2023-02-01T00:31:55.298Z,0.00
2023-02-01T00:32:55.236Z,0.00
2023-02-01T00:33:55.283Z,0.00
2023-02-01T00:34:55.287Z,0.00
2023-02-01T00:35:55.305Z,0.00
2023-02-01T00:36:55.330Z,0.00
2023-02-01T00:37:55.354Z,0.00
2023-02-01T00:38:55.378Z,0.00
2023-02-01T00:39:55.400Z,0.00
2023-02-01T00:40:55.425Z,0.00
2023-02-01T00:41:55.447Z,0.00
2023-02-01T00:42:55.474Z,0.00
2023-02-01T00:43:55.497Z,0.00
2023-02-01T00:44:55.521Z,0.00
2023-02-01T00:45:55.539Z,0.00
2023-02-01T00:46:55.693Z,0.00
2023-02-01T00:47:55.588Z,0.00
2023-02-01T00:48:55.622Z,0.00
2023-02-01T00:49:55.658Z,0.00
2023-02-01T00:50:55.660Z,0.00
2023-02-01T00:51:55.690Z,0.00
2023-02-01T00:52:55.714Z,0.00
2023-02-01T00:53:55.730Z,0.00
2023-02-01T00:54:55.763Z,0.00
2023-02-01T00:55:55.781Z,0.00
2023-02-01T00:56:55.806Z,0.00
2023-02-01T00:57:55.846Z,0.00
2023-02-01T00:58:55.847Z,0.00
2023-02-01T00:59:55.891Z,0.00
2023-02-01T01:00:55.928Z,0.00
2023-02-01T01:01:55.980Z,0.00
2023-02-01T01:02:55.960Z,0.00
2023-02-01T01:03:55.983Z,0.00
2023-02-01T01:04:56.018Z,0.00
2023-02-01T01:05:56.041Z,0.00
2023-02-01T01:06:56.035Z,0.00
2023-02-01T01:07:56.057Z,0.00
2023-02-01T01:08:56.142Z,0.00
2023-02-01T01:09:56.124Z,0.00
2023-02-01T01:10:56.131Z,0.00
2023-02-01T01:11:56.161Z,0.00
2023-02-01T01:12:56.177Z,0.00
2023-02-01T01:13:56.227Z,0.00
2023-02-01T01:14:56.248Z,0.00
2023-02-01T01:15:56.267Z,0.00
2023-02-01T01:16:56.284Z,0.00
2023-02-01T01:17:56.316Z,0.00
2023-02-01T01:18:56.326Z,0.00
2023-02-01T01:19:58.906Z,0.00
2023-02-01T01:20:56.369Z,0.00
2023-02-01T01:21:56.414Z,0.00
2023-02-01T01:22:56.424Z,0.00
2023-02-01T01:23:56.439Z,0.00
2023-02-01T01:24:56.461Z,0.00
2023-02-01T01:25:56.488Z,0.00
2023-02-01T01:26:56.508Z,0.00
2023-02-01T01:27:56.533Z,0.00
2023-02-01T01:28:56.561Z,0.00
2023-02-01T01:29:56.581Z,0.00
2023-02-01T01:30:56.613Z,0.00
2023-02-01T01:31:56.828Z,0.00
2023-02-01T01:32:56.650Z,0.00
2023-02-01T01:33:56.729Z,0.00
2023-02-01T01:34:56.697Z,0.00
2023-02-01T01:35:56.722Z,0.00
2023-02-01T01:36:56.744Z,0.00
2023-02-01T01:37:56.799Z,0.00
2023-02-01T01:38:56.795Z,0.00
2023-02-01T01:39:56.823Z,0.00
2023-02-01T01:40:56.838Z,0.00
2023-02-01T01:41:56.867Z,0.00
2023-02-01T01:42:56.886Z,0.00
2023-02-01T01:43:56.913Z,0.00
2023-02-01T01:44:56.934Z,0.00
2023-02-01T01:45:56.959Z,0.00
2023-02-01T01:46:57.105Z,0.00
2023-02-01T01:47:57.005Z,0.00
2023-02-01T01:48:57.027Z,0.00
2023-02-01T01:49:57.052Z,0.00
2023-02-01T01:50:57.077Z,0.00
2023-02-01T01:51:57.101Z,0.00
2023-02-01T01:52:57.124Z,0.00
2023-02-01T01:53:57.166Z,0.00
2023-02-01T01:54:57.168Z,0.00
2023-02-01T01:55:57.195Z,0.00
2023-02-01T01:56:57.213Z,0.00
2023-02-01T01:57:57.249Z,0.00
2023-02-01T01:58:57.261Z,0.00
2023-02-01T01:59:57.284Z,0.00
2023-02-01T02:00:57.342Z,0.00
2023-02-01T02:01:57.576Z,0.00
2023-02-01T02:02:57.354Z,0.00
2023-02-01T02:03:57.385Z,0.00
2023-02-01T02:04:57.405Z,0.00
2023-02-01T02:05:57.430Z,0.00
2023-02-01T02:06:57.447Z,0.00
2023-02-01T02:07:57.474Z,0.00
2023-02-01T02:08:57.494Z,0.00
2023-02-01T02:10:00.752Z,0.00
2023-02-01T02:10:57.542Z,0.00
2023-02-01T02:11:57.566Z,0.00
2023-02-01T02:12:57.588Z,0.00
2023-02-01T02:13:57.613Z,0.00
2023-02-01T02:14:57.639Z,0.00
2023-02-01T02:15:57.701Z,0.00
2023-02-01T02:16:57.684Z,0.00
2023-02-01T02:17:57.712Z,0.00
2023-02-01T02:18:57.729Z,0.00
2023-02-01T02:19:57.754Z,0.00
2023-02-01T02:20:57.776Z,0.00
2023-02-01T02:21:57.801Z,0.00
2023-02-01T02:22:57.826Z,0.00
2023-02-01T02:23:57.861Z,0.00
2023-02-01T02:24:57.870Z,0.00
2023-02-01T02:25:57.919Z,0.00
2023-02-01T02:26:57.920Z,0.00
2023-02-01T02:27:57.947Z,0.00
2023-02-01T02:28:57.963Z,0.00
2023-02-01T02:29:57.989Z,0.00
2023-02-01T02:30:58.052Z,0.00
2023-02-01T02:31:58.047Z,0.00
2023-02-01T02:32:58.073Z,0.00
2023-02-01T02:33:58.088Z,0.00
2023-02-01T02:34:58.105Z,0.00
2023-02-01T02:35:58.129Z,0.00
2023-02-01T02:36:58.153Z,0.00
2023-02-01T02:37:58.176Z,0.00
2023-02-01T02:38:58.207Z,0.00
2023-02-01T02:39:58.222Z,0.00
2023-02-01T02:40:58.244Z,0.00
2023-02-01T02:41:58.293Z,0.00
2023-02-01T02:42:58.548Z,0.00
2023-02-01T02:43:58.316Z,0.00
2023-02-01T02:44:58.338Z,0.00
2023-02-01T02:45:58.422Z,0.00
2023-02-01T02:46:58.389Z,0.00
2023-02-01T02:47:58.413Z,0.00
2023-02-01T02:48:58.432Z,0.00
2023-02-01T02:49:58.458Z,0.00
2023-02-01T02:50:58.479Z,0.00
2023-02-01T02:51:58.504Z,0.00
2023-02-01T02:52:58.539Z,0.00
2023-02-01T02:53:58.550Z,0.00
2023-02-01T02:54:58.575Z,0.00
2023-02-01T02:55:58.599Z,0.00
2023-02-01T02:56:58.619Z,0.00
2023-02-01T02:57:58.667Z,0.00
2023-02-01T02:58:58.665Z,0.00
2023-02-01T02:59:58.693Z,0.00
2023-02-01T03:00:58.793Z,0.00
2023-02-01T03:01:58.739Z,0.00
2023-02-01T03:02:58.798Z,0.00
2023-02-01T03:03:58.790Z,0.00
2023-02-01T03:04:58.818Z,0.00
2023-02-01T03:05:58.833Z,0.00
2023-02-01T03:06:58.857Z,0.00
2023-02-01T03:07:58.878Z,0.00
2023-02-01T03:08:58.909Z,0.00
2023-02-01T03:09:58.925Z,0.00
2023-02-01T03:10:58.955Z,0.00
2023-02-01T03:11:58.978Z,0.00
2023-02-01T03:12:58.998Z,0.00
2023-02-01T03:13:59.038Z,0.00
2023-02-01T03:14:59.042Z,0.00
2023-02-01T03:15:59.068Z,0.00
2023-02-01T03:16:59.088Z,0.00
2023-02-01T03:17:59.115Z,0.00
2023-02-01T03:18:59.139Z,0.00
2023-02-01T03:19:59.157Z,0.00
2023-02-01T03:20:59.179Z,0.00
2023-02-01T03:22:00.494Z,0.00
2023-02-01T03:22:59.231Z,0.00
2023-02-01T03:23:59.252Z,0.00
2023-02-01T03:24:59.277Z,0.00
2023-02-01T03:25:59.299Z,0.00
2023-02-01T03:26:59.326Z,0.00
2023-02-01T03:27:59.346Z,0.00
2023-02-01T03:28:59.373Z,0.00
2023-02-01T03:29:59.413Z,0.00
2023-02-01T03:30:59.530Z,0.00
2023-02-01T03:31:59.483Z,0.00
2023-02-01T03:32:59.465Z,0.00
2023-02-01T03:33:59.486Z,0.00
2023-02-01T03:34:59.513Z,0.00
2023-02-01T03:35:59.537Z,0.00
2023-02-01T03:36:59.578Z,0.00
2023-02-01T03:37:59.582Z,0.00
2023-02-01T03:38:59.606Z,0.00
2023-02-01T03:39:59.634Z,0.00
2023-02-01T03:40:59.658Z,0.00
2023-02-01T03:41:59.676Z,0.00
2023-02-01T03:42:59.704Z,0.00
2023-02-01T03:43:59.749Z,0.00
2023-02-01T03:44:59.751Z,0.00
2023-02-01T03:45:59.882Z,0.00
2023-02-01T03:46:59.797Z,0.00
2023-02-01T03:47:59.816Z,0.00
2023-02-01T03:48:59.840Z,0.00
2023-02-01T03:49:59.862Z,0.00
2023-02-01T03:50:59.892Z,0.00
2023-02-01T03:52:00.003Z,0.00
2023-02-01T03:52:59.934Z,0.00
2023-02-01T03:53:59.957Z,0.00
2023-02-01T03:54:59.984Z,0.00
2023-02-01T03:56:00.044Z,0.00
2023-02-01T03:57:00.029Z,0.00
2023-02-01T03:58:00.064Z,0.00
2023-02-01T03:59:00.270Z,0.00
2023-02-01T04:00:00.162Z,0.00
2023-02-01T04:01:00.168Z,0.00
2023-02-01T04:02:00.287Z,0.00
2023-02-01T04:03:00.169Z,0.00
2023-02-01T04:04:00.191Z,0.00
2023-02-01T04:05:00.215Z,0.00
2023-02-01T04:06:00.237Z,0.00
2023-02-01T04:07:00.264Z,0.00
2023-02-01T04:08:00.285Z,0.00
2023-02-01T04:09:00.309Z,0.00
2023-02-01T04:10:00.334Z,0.00
2023-02-01T04:11:00.365Z,0.00
2023-02-01T04:12:00.389Z,0.00
2023-02-01T04:13:00.426Z,0.00
2023-02-01T04:14:00.422Z,0.00
2023-02-01T04:15:00.452Z,0.00
2023-02-01T04:16:00.476Z,0.00
2023-02-01T04:17:00.514Z,0.00
2023-02-01T04:18:00.554Z,0.00
2023-02-01T04:19:00.543Z,0.00
2023-02-01T04:20:00.571Z,0.00
2023-02-01T04:21:00.589Z,0.00
2023-02-01T04:22:00.612Z,0.00
2023-02-01T04:23:00.635Z,0.00
2023-02-01T04:24:00.656Z,0.00
2023-02-01T04:25:00.683Z,0.00
2023-02-01T04:26:00.703Z,0.00
2023-02-01T04:27:00.728Z,0.00
2023-02-01T04:28:00.763Z,0.00
2023-02-01T04:29:00.789Z,0.00
2023-02-01T04:30:00.809Z,0.00
2023-02-01T04:31:01.041Z,0.00
2023-02-01T04:32:00.861Z,0.00
2023-02-01T04:33:00.887Z,0.00
2023-02-01T04:34:00.916Z,0.00
2023-02-01T04:35:00.917Z,0.00
2023-02-01T04:36:00.954Z,0.00
2023-02-01T04:37:00.962Z,0.00
2023-02-01T04:38:00.983Z,0.00
2023-02-01T04:39:01.010Z,0.00
2023-02-01T04:40:01.030Z,0.00
2023-02-01T04:41:01.056Z,0.00
2023-02-01T04:42:01.077Z,0.00
2023-02-01T04:43:01.111Z,0.00
2023-02-01T04:44:01.128Z,0.00
2023-02-01T04:45:01.155Z,0.00
2023-02-01T04:46:01.229Z,0.00
2023-02-01T04:47:01.194Z,0.00
2023-02-01T04:48:01.218Z,0.00
2023-02-01T04:49:01.244Z,0.00
2023-02-01T04:50:01.302Z,0.00
2023-02-01T04:51:01.291Z,0.00
2023-02-01T04:52:01.311Z,0.00
2023-02-01T04:53:01.348Z,0.00
2023-02-01T04:54:01.358Z,0.00
2023-02-01T04:55:01.418Z,0.00
2023-02-01T04:56:01.403Z,0.00
2023-02-01T04:57:01.430Z,0.00
2023-02-01T04:58:01.450Z,0.00
2023-02-01T04:59:01.477Z,0.00
2023-02-01T05:00:01.499Z,0.00
2023-02-01T05:01:01.560Z,0.00
2023-02-01T05:02:01.564Z,0.00
2023-02-01T05:03:01.577Z,0.00
2023-02-01T05:04:01.588Z,0.00
2023-02-01T05:05:01.671Z,0.00
2023-02-01T05:06:01.661Z,0.00
2023-02-01T05:07:01.663Z,0.00
2023-02-01T05:08:01.682Z,0.00
2023-02-01T05:09:01.705Z,0.00
2023-02-01T05:10:01.727Z,0.00
2023-02-01T05:11:01.753Z,0.00
2023-02-01T05:12:01.800Z,0.00
2023-02-01T05:13:01.801Z,0.00
2023-02-01T05:14:02.604Z,0.00
2023-02-01T05:15:01.846Z,0.00
2023-02-01T05:16:01.928Z,0.00
2023-02-01T05:17:01.890Z,0.00
2023-02-01T05:18:01.915Z,0.00
2023-02-01T05:19:02.037Z,0.00
2023-02-01T05:20:01.959Z,0.00
2023-02-01T05:21:01.982Z,0.00
2023-02-01T05:22:02.040Z,0.00
2023-02-01T05:23:02.030Z,0.00
2023-02-01T05:24:02.050Z,0.00
2023-02-01T05:25:02.070Z,0.00
2023-02-01T05:26:02.116Z,0.00
2023-02-01T05:27:02.120Z,0.00
2023-02-01T05:28:02.157Z,0.00
2023-02-01T05:29:02.174Z,0.00
2023-02-01T05:30:02.197Z,0.00
2023-02-01T05:31:02.329Z,0.00
2023-02-01T05:32:19.472Z,0.00
2023-02-01T05:33:02.255Z,0.00
2023-02-01T05:34:02.294Z,0.00
2023-02-01T05:35:02.307Z,0.00
2023-02-01T05:36:02.328Z,0.00
2023-02-01T05:37:02.348Z,0.00
2023-02-01T05:38:02.397Z,0.00
2023-02-01T05:39:02.393Z,0.00
2023-02-01T05:40:02.418Z,0.00
2023-02-01T05:41:02.449Z,0.00
2023-02-01T05:42:02.465Z,0.00
2023-02-01T05:43:02.489Z,0.00
2023-02-01T05:44:02.508Z,0.00
2023-02-01T05:45:02.531Z,0.00
2023-02-01T05:46:02.625Z,0.00
2023-02-01T05:47:02.578Z,0.00
2023-02-01T05:48:02.603Z,0.00
2023-02-01T05:49:02.624Z,0.00
2023-02-01T05:50:02.645Z,0.00
2023-02-01T05:51:02.667Z,0.00
2023-02-01T05:52:02.695Z,0.00
2023-02-01T05:53:02.715Z,0.00
2023-02-01T05:54:02.763Z,0.00
2023-02-01T05:55:02.769Z,0.00
2023-02-01T05:56:02.797Z,0.00
2023-02-01T05:57:02.816Z,0.00
2023-02-01T05:58:02.828Z,0.00
2023-02-01T05:59:02.851Z,0.00
2023-02-01T06:00:02.887Z,0.00
2023-02-01T06:01:02.901Z,0.00
2023-02-01T06:02:02.918Z,0.00
2023-02-01T06:03:03.043Z,0.00
2023-02-01T06:04:02.988Z,0.00
2023-02-01T06:05:02.988Z,0.00
2023-02-01T06:06:03.020Z,0.00
2023-02-01T06:07:03.034Z,0.00
2023-02-01T06:08:03.055Z,0.00
2023-02-01T06:09:03.080Z,0.00
2023-02-01T06:10:03.219Z,0.00
2023-02-01T06:11:03.130Z,0.00
2023-02-01T06:12:03.147Z,0.00
2023-02-01T06:13:03.177Z,0.00
2023-02-01T06:14:03.218Z,0.00
2023-02-01T06:15:03.219Z,0.00
2023-02-01T06:16:03.461Z,0.00
2023-02-01T06:17:03.262Z,0.00
2023-02-01T06:18:03.306Z,0.00
2023-02-01T06:19:03.313Z,0.00
2023-02-01T06:20:03.329Z,0.00
2023-02-01T06:21:03.365Z,0.00
2023-02-01T06:22:03.374Z,0.00
2023-02-01T06:23:03.401Z,0.00
2023-02-01T06:24:03.420Z,0.00
2023-02-01T06:25:03.441Z,0.00
2023-02-01T06:26:03.496Z,0.00
2023-02-01T06:27:03.495Z,0.00
2023-02-01T06:28:03.509Z,0.00
2023-02-01T06:29:03.537Z,0.00
2023-02-01T06:30:03.567Z,0.00
2023-02-01T06:31:03.802Z,0.00
2023-02-01T06:32:03.628Z,0.00
2023-02-01T06:33:03.627Z,0.00
2023-02-01T06:34:03.648Z,0.00
2023-02-01T06:35:03.672Z,0.00
2023-02-01T06:36:03.701Z,0.00
2023-02-01T06:37:03.714Z,0.00
2023-02-01T06:38:03.747Z,0.00
2023-02-01T06:39:03.777Z,0.00
2023-02-01T06:40:03.787Z,0.00
2023-02-01T06:41:03.808Z,0.00
2023-02-01T06:42:03.853Z,0.00
2023-02-01T06:43:03.852Z,0.00
2023-02-01T06:44:03.880Z,0.00
2023-02-01T06:45:03.895Z,0.00
2023-02-01T06:46:03.931Z,0.00
2023-02-01T06:47:03.944Z,0.00
2023-02-01T06:48:03.968Z,0.00
2023-02-01T06:49:03.991Z,0.00
2023-02-01T06:50:04.014Z,0.00
2023-02-01T06:51:04.042Z,0.00
2023-02-01T06:52:04.067Z,0.00
2023-02-01T06:53:04.080Z,0.00
2023-02-01T06:54:04.104Z,0.00
2023-02-01T06:55:04.125Z,0.00
2023-02-01T06:56:04.173Z,0.00
2023-02-01T06:57:04.193Z,0.00
2023-02-01T06:58:04.221Z,0.00
2023-02-01T06:59:04.217Z,0.00
2023-02-01T07:00:04.243Z,0.00
2023-02-01T07:01:04.343Z,0.00
2023-02-01T07:02:04.337Z,0.00
2023-02-01T07:03:04.310Z,0.00
2023-02-01T07:04:04.331Z,0.00
2023-02-01T07:05:04.364Z,0.00
2023-02-01T07:06:04.380Z,0.00
2023-02-01T07:07:04.403Z,0.00
2023-02-01T07:08:04.430Z,0.00
2023-02-01T07:09:04.456Z,0.00
2023-02-01T07:10:04.477Z,0.00
2023-02-01T07:11:04.495Z,0.00
2023-02-01T07:12:04.519Z,0.00
2023-02-01T07:13:04.541Z,0.00
2023-02-01T07:14:04.636Z,0.00
2023-02-01T07:15:04.587Z,0.00
2023-02-01T07:16:04.685Z,0.00
2023-02-01T07:17:04.629Z,0.00
2023-02-01T07:18:04.656Z,5.63
2023-02-01T07:19:04.678Z,5.63
2023-02-01T07:20:04.709Z,5.63
2023-02-01T07:21:04.754Z,5.63
2023-02-01T07:22:04.750Z,5.63
2023-02-01T07:23:04.773Z,5.63
2023-02-01T07:24:04.794Z,5.63
2023-02-01T07:25:06.614Z,5.63
2023-02-01T07:26:04.842Z,5.63
2023-02-01T07:27:04.867Z,5.63
2023-02-01T07:28:04.888Z,5.63
2023-02-01T07:29:04.912Z,5.63
2023-02-01T07:30:04.975Z,5.63
2023-02-01T07:31:05.020Z,5.63
2023-02-01T07:32:04.988Z,5.63
2023-02-01T07:33:05.002Z,5.63
2023-02-01T07:34:05.026Z,5.63
2023-02-01T07:35:05.049Z,5.63
2023-02-01T07:36:05.077Z,11.25
2023-02-01T07:37:05.093Z,11.25
2023-02-01T07:38:05.120Z,11.25
2023-02-01T07:39:05.145Z,11.25
2023-02-01T07:40:05.165Z,11.25
2023-02-01T07:41:05.188Z,11.25
2023-02-01T07:42:05.213Z,11.25
2023-02-01T07:43:05.238Z,16.88
2023-02-01T07:44:05.264Z,16.88
2023-02-01T07:45:19.892Z,22.50
2023-02-01T07:46:05.447Z,22.50
2023-02-01T07:47:05.329Z,22.50
2023-02-01T07:48:05.357Z,22.50
2023-02-01T07:49:05.374Z,22.50
2023-02-01T07:50:05.401Z,28.13
2023-02-01T07:51:05.425Z,28.13
2023-02-01T07:52:05.459Z,28.13
2023-02-01T07:53:05.467Z,33.75
2023-02-01T07:54:05.492Z,33.75
2023-02-01T07:55:05.518Z,39.38
2023-02-01T07:56:05.540Z,39.38
2023-02-01T07:57:05.561Z,45.00
2023-02-01T07:58:05.609Z,39.38
2023-02-01T07:59:05.611Z,39.38
2023-02-01T08:00:05.630Z,33.75
2023-02-01T08:01:05.740Z,33.75
2023-02-01T08:02:05.730Z,28.13
2023-02-01T08:03:05.699Z,28.13
2023-02-01T08:04:05.728Z,22.50
2023-02-01T08:05:05.751Z,22.50
2023-02-01T08:06:05.771Z,28.13
2023-02-01T08:07:05.804Z,22.50
2023-02-01T08:08:05.817Z,22.50
2023-02-01T08:09:05.842Z,22.50
2023-02-01T08:10:05.869Z,28.13
2023-02-01T08:11:05.894Z,28.13
2023-02-01T08:12:05.911Z,22.50
2023-02-01T08:13:05.941Z,22.50
2023-02-01T08:14:05.961Z,22.50
2023-02-01T08:15:05.982Z,22.50
2023-02-01T08:16:06.080Z,16.88
2023-02-01T08:17:06.026Z,22.50
2023-02-01T08:18:06.071Z,22.50
2023-02-01T08:19:06.085Z,22.50
2023-02-01T08:20:06.103Z,22.50
2023-02-01T08:21:06.127Z,22.50
2023-02-01T08:22:06.147Z,22.50
2023-02-01T08:23:06.169Z,22.50
2023-02-01T08:24:06.192Z,22.50
2023-02-01T08:25:06.223Z,16.88
2023-02-01T08:26:06.241Z,22.50
2023-02-01T08:27:06.262Z,22.50
2023-02-01T08:28:06.293Z,22.50
2023-02-01T08:29:06.306Z,28.13
2023-02-01T08:30:06.337Z,28.13
2023-02-01T08:31:06.395Z,28.13
2023-02-01T08:32:06.468Z,28.13
2023-02-01T08:33:06.403Z,28.13
2023-02-01T08:34:06.463Z,28.13
2023-02-01T08:35:06.447Z,28.13
2023-02-01T08:36:06.475Z,28.13
2023-02-01T08:37:06.496Z,28.13
2023-02-01T08:38:06.524Z,28.13
2023-02-01T08:39:06.649Z,28.13
2023-02-01T08:40:06.575Z,28.13
2023-02-01T08:41:06.596Z,33.75
2023-02-01T08:42:06.612Z,33.75
2023-02-01T08:43:06.637Z,33.75
2023-02-01T08:44:06.662Z,33.75
2023-02-01T08:45:06.681Z,33.75
2023-02-01T08:46:06.749Z,33.75
2023-02-01T08:47:06.736Z,39.38
2023-02-01T08:48:06.755Z,45.00
2023-02-01T08:49:06.787Z,50.63
2023-02-01T08:50:06.823Z,50.63
2023-02-01T08:51:06.825Z,50.63
2023-02-01T08:52:14.446Z,50.63
2023-02-01T08:53:06.872Z,56.25
2023-02-01T08:54:06.900Z,67.50
2023-02-01T08:55:06.917Z,78.75
2023-02-01T08:56:06.951Z,73.13
2023-02-01T08:57:06.966Z,67.50
2023-02-01T08:58:06.992Z,73.13
2023-02-01T08:59:07.011Z,90.00
2023-02-01T09:00:07.037Z,84.38
2023-02-01T09:01:07.118Z,78.75
2023-02-01T09:02:07.083Z,73.13
2023-02-01T09:03:07.107Z,67.50
2023-02-01T09:04:07.212Z,73.13
2023-02-01T09:05:07.190Z,73.13
2023-02-01T09:06:07.195Z,90.00
2023-02-01T09:07:07.209Z,101.25
2023-02-01T09:08:07.229Z,95.63
2023-02-01T09:09:07.247Z,78.75
2023-02-01T09:10:07.302Z,78.75
2023-02-01T09:11:07.295Z,78.75
2023-02-01T09:12:07.323Z,56.25
2023-02-01T09:13:07.344Z,56.25
2023-02-01T09:14:07.367Z,56.25
2023-02-01T09:15:07.446Z,56.25
2023-02-01T09:16:07.522Z,67.50
2023-02-01T09:17:07.473Z,78.75
2023-02-01T09:18:07.465Z,84.38
2023-02-01T09:19:24.886Z,101.25
2023-02-01T09:20:07.515Z,123.75
2023-02-01T09:21:07.539Z,123.75
2023-02-01T09:22:07.578Z,135.00
2023-02-01T09:23:07.590Z,135.00
2023-02-01T09:24:07.605Z,123.75
2023-02-01T09:25:07.679Z,118.13
2023-02-01T09:26:07.656Z,112.50
2023-02-01T09:27:07.729Z,112.50
2023-02-01T09:28:07.706Z,106.88
2023-02-01T09:29:07.726Z,106.88
2023-02-01T09:30:07.766Z,101.25
2023-02-01T09:31:07.878Z,95.63
2023-02-01T09:32:07.911Z,84.38
2023-02-01T09:33:07.844Z,84.38
2023-02-01T09:34:07.845Z,73.13
2023-02-01T09:35:07.896Z,67.50
2023-02-01T09:36:07.971Z,73.13
2023-02-01T09:37:07.917Z,84.38
2023-02-01T09:38:07.980Z,67.50
2023-02-01T09:39:07.966Z,61.88
2023-02-01T09:40:08.025Z,39.38
2023-02-01T09:41:08.092Z,50.63
2023-02-01T09:42:08.051Z,73.13
2023-02-01T09:43:08.081Z,95.63
2023-02-01T09:44:08.091Z,84.38
2023-02-01T09:45:08.118Z,95.63
2023-02-01T09:46:08.187Z,106.88
2023-02-01T09:47:08.160Z,101.25
2023-02-01T09:48:08.182Z,78.75
2023-02-01T09:49:08.228Z,84.38
2023-02-01T09:50:08.230Z,90.00
2023-02-01T09:51:08.284Z,78.75
2023-02-01T09:52:08.283Z,90.00
2023-02-01T09:53:08.306Z,95.63
2023-02-01T09:54:08.342Z,90.00
2023-02-01T09:55:08.351Z,101.25
2023-02-01T09:56:08.451Z,95.63
2023-02-01T09:57:08.400Z,95.63
2023-02-01T09:58:08.421Z,84.38
2023-02-01T09:59:08.464Z,73.13
2023-02-01T10:00:08.476Z,78.75
2023-02-01T10:01:08.535Z,84.38
2023-02-01T10:02:08.534Z,73.13
2023-02-01T10:03:08.577Z,78.75
2023-02-01T10:04:08.566Z,78.75
2023-02-01T10:05:08.593Z,78.75
2023-02-01T10:06:08.622Z,73.13
2023-02-01T10:07:08.642Z,73.13
2023-02-01T10:08:08.664Z,67.50
2023-02-01T10:09:08.690Z,61.88
2023-02-01T10:10:08.747Z,56.25
2023-02-01T10:11:08.742Z,61.88
2023-02-01T10:12:08.763Z,67.50
2023-02-01T10:13:08.802Z,78.75
2023-02-01T10:14:08.812Z,95.63
2023-02-01T10:15:08.836Z,118.13
2023-02-01T10:16:09.028Z,112.50
2023-02-01T10:17:08.884Z,106.88
2023-02-01T10:18:08.911Z,123.75
2023-02-01T10:19:08.933Z,129.38
2023-02-01T10:20:08.959Z,146.25
2023-02-01T10:21:08.984Z,135.00
2023-02-01T10:22:09.005Z,129.38
2023-02-01T10:23:31.244Z,129.38
2023-02-01T10:24:17.420Z,129.38
2023-02-01T10:25:09.100Z,157.50
2023-02-01T10:26:09.132Z,151.88
2023-02-01T10:27:09.126Z,146.25
2023-02-01T10:28:09.157Z,146.25
2023-02-01T10:29:09.193Z,129.38
2023-02-01T10:30:09.201Z,123.75
2023-02-01T10:31:09.327Z,118.13
2023-02-01T10:32:09.334Z,112.50
2023-02-01T10:33:09.274Z,118.13
2023-02-01T10:34:09.295Z,123.75
2023-02-01T10:35:09.326Z,140.63
2023-02-01T10:36:09.344Z,151.88
2023-02-01T10:37:09.370Z,123.75
2023-02-01T10:38:09.392Z,129.38
2023-02-01T10:39:09.422Z,123.75
2023-02-01T10:40:09.440Z,129.38
2023-02-01T10:41:09.468Z,146.25
2023-02-01T10:42:11.487Z,151.88
2023-02-01T10:43:09.517Z,157.50
2023-02-01T10:44:09.541Z,174.38
2023-02-01T10:45:09.567Z,185.63
2023-02-01T10:46:09.671Z,185.63
2023-02-01T10:47:09.624Z,185.63
2023-02-01T10:48:09.644Z,185.63
2023-02-01T10:49:09.665Z,191.25
2023-02-01T10:50:09.690Z,180.00
2023-02-01T10:51:09.715Z,196.88
2023-02-01T10:52:09.742Z,191.25
2023-02-01T10:53:09.785Z,202.50
2023-02-01T10:54:09.789Z,213.75
2023-02-01T10:55:09.813Z,208.13
2023-02-01T10:56:09.848Z,208.13
2023-02-01T10:57:09.867Z,213.75
2023-02-01T10:58:09.907Z,213.75
2023-02-01T10:59:09.915Z,202.50
2023-02-01T11:00:09.936Z,191.25
2023-02-01T11:01:09.964Z,157.50
2023-02-01T11:02:10.035Z,157.50
2023-02-01T11:03:10.086Z,185.63
2023-02-01T11:04:10.043Z,174.38
2023-02-01T11:05:10.063Z,174.38
2023-02-01T11:06:10.086Z,168.75
2023-02-01T11:07:10.114Z,146.25
2023-02-01T11:08:10.138Z,146.25
2023-02-01T11:09:10.163Z,140.63
2023-02-01T11:10:10.195Z,123.75
2023-02-01T11:11:10.216Z,140.63
2023-02-01T11:12:10.239Z,140.63
2023-02-01T11:13:10.273Z,129.38
2023-02-01T11:14:10.309Z,118.13
2023-02-01T11:15:10.322Z,123.75
2023-02-01T11:16:10.363Z,112.50
2023-02-01T11:17:10.367Z,106.88
2023-02-01T11:18:10.390Z,106.88
2023-02-01T11:19:10.422Z,95.63
2023-02-01T11:20:10.438Z,90.00
2023-02-01T11:21:10.465Z,78.75
2023-02-01T11:22:10.510Z,84.38
2023-02-01T11:23:10.517Z,78.75
2023-02-01T11:24:10.563Z,95.63
2023-02-01T11:25:10.569Z,95.63
2023-02-01T11:26:10.590Z,101.25
2023-02-01T11:27:13.740Z,118.13
2023-02-01T11:28:10.645Z,129.38
2023-02-01T11:29:10.668Z,135.00
2023-02-01T11:30:10.710Z,140.63
2023-02-01T11:31:10.851Z,135.00
2023-02-01T11:32:10.837Z,157.50
2023-02-01T11:33:10.766Z,157.50
2023-02-01T11:34:10.794Z,140.63
2023-02-01T11:35:10.817Z,140.63
2023-02-01T11:36:10.839Z,151.88
2023-02-01T11:37:10.865Z,157.50
2023-02-01T11:38:10.890Z,174.38
2023-02-01T11:39:10.926Z,163.13
2023-02-01T11:40:10.943Z,140.63
2023-02-01T11:41:10.965Z,140.63
2023-02-01T11:42:10.989Z,146.25
2023-02-01T11:43:11.017Z,151.88
2023-02-01T11:44:11.039Z,140.63
2023-02-01T11:45:11.067Z,135.00
2023-02-01T11:46:11.141Z,146.25
2023-02-01T11:47:11.116Z,140.63
2023-02-01T11:48:15.064Z,140.63
2023-02-01T11:49:11.166Z,140.63
2023-02-01T11:50:11.189Z,112.50
2023-02-01T11:51:11.216Z,118.13
2023-02-01T11:52:11.388Z,123.75
2023-02-01T11:53:11.266Z,112.50
2023-02-01T11:54:11.297Z,118.13
2023-02-01T11:55:11.316Z,106.88
2023-02-01T11:56:11.337Z,95.63
2023-02-01T11:57:11.370Z,90.00
2023-02-01T11:58:11.402Z,101.25
2023-02-01T11:59:11.421Z,101.25
2023-02-01T12:00:11.440Z,95.63
2023-02-01T12:01:11.479Z,101.25
2023-02-01T12:02:11.590Z,112.50
2023-02-01T12:03:11.548Z,123.75
2023-02-01T12:04:11.541Z,123.75
2023-02-01T12:05:11.572Z,135.00
2023-02-01T12:06:11.589Z,140.63
2023-02-01T12:07:11.617Z,135.00
2023-02-01T12:08:11.637Z,135.00
2023-02-01T12:09:11.678Z,129.38
2023-02-01T12:10:11.692Z,123.75
2023-02-01T12:11:11.716Z,106.88
2023-02-01T12:12:11.891Z,90.00
2023-02-01T12:13:11.767Z,78.75
2023-02-01T12:14:11.831Z,67.50
2023-02-01T12:15:11.819Z,61.88
2023-02-01T12:16:11.869Z,45.00
2023-02-01T12:17:11.877Z,45.00
2023-02-01T12:18:11.920Z,39.38
2023-02-01T12:19:11.921Z,50.63
2023-02-01T12:20:11.942Z,61.88
2023-02-01T12:21:11.967Z,56.25
2023-02-01T12:22:11.996Z,45.00
2023-02-01T12:23:12.018Z,50.63
2023-02-01T12:24:12.081Z,50.63
2023-02-01T12:25:12.067Z,45.00
2023-02-01T12:26:12.094Z,56.25
2023-02-01T12:27:12.118Z,56.25
2023-02-01T12:28:12.142Z,61.88
2023-02-01T12:29:12.168Z,78.75
2023-02-01T12:30:12.193Z,78.75
2023-02-01T12:31:12.213Z,84.38
2023-02-01T12:32:12.335Z,84.38
2023-02-01T12:33:12.267Z,101.25
2023-02-01T12:34:12.305Z,118.13
2023-02-01T12:35:12.313Z,123.75
2023-02-01T12:36:12.340Z,112.50
2023-02-01T12:37:12.373Z,101.25
2023-02-01T12:38:12.419Z,106.88
2023-02-01T12:39:12.413Z,84.38
2023-02-01T12:40:12.439Z,73.13
2023-02-01T12:41:12.459Z,67.50
2023-02-01T12:42:12.484Z,78.75
2023-02-01T12:43:12.511Z,90.00
2023-02-01T12:44:12.539Z,78.75
2023-02-01T12:45:12.558Z,73.13
2023-02-01T12:46:12.668Z,61.88
2023-02-01T12:47:12.611Z,56.25
2023-02-01T12:48:12.640Z,56.25
2023-02-01T12:49:12.674Z,56.25
2023-02-01T12:50:12.709Z,61.88
2023-02-01T12:51:12.712Z,67.50
2023-02-01T12:52:12.731Z,73.13
2023-02-01T12:53:12.759Z,61.88
2023-02-01T12:54:12.784Z,61.88
2023-02-01T12:55:12.833Z,45.00
2023-02-01T12:56:12.833Z,33.75
2023-02-01T12:57:12.857Z,33.75
2023-02-01T12:58:12.881Z,33.75
2023-02-01T12:59:12.907Z,33.75
2023-02-01T13:00:12.931Z,33.75
2023-02-01T13:01:13.031Z,39.38
2023-02-01T13:02:13.021Z,39.38
2023-02-01T13:03:13.036Z,39.38
2023-02-01T13:04:13.041Z,39.38